createdAt,value
2018-09-30T00:00:35.710Z,7.50
2018-09-30T00:03:05.466Z,7.70
2018-09-30T00:05:35.302Z,7.70
2018-09-30T00:08:05.386Z,7.70
2018-09-30T00:10:35.178Z,7.70
2018-09-30T00:13:04.957Z,7.80
2018-09-30T00:15:34.884Z,7.80
2018-09-30T00:18:04.678Z,7.90
2018-09-30T00:20:34.757Z,7.90
2018-09-30T00:23:04.531Z,8.00
2018-09-30T00:25:39.286Z,8.00
2018-09-30T00:28:09.470Z,8.10
2018-09-30T00:30:39.259Z,8.10
2018-09-30T00:33:09.130Z,8.10
2018-09-30T00:35:39.273Z,8.10
2018-09-30T00:38:09.062Z,8.10
2018-09-30T00:40:38.874Z,8.10
2018-09-30T00:43:08.639Z,8.10
2018-09-30T00:45:38.859Z,8.10
2018-09-30T00:48:08.611Z,8.10
2018-09-30T00:50:38.402Z,8.10
2018-09-30T00:53:08.603Z,8.20
2018-09-30T00:55:38.354Z,8.20
2018-09-30T00:58:08.122Z,8.30
2018-09-30T01:00:37.934Z,8.30
2018-09-30T01:03:07.686Z,8.30
2018-09-30T01:05:37.783Z,8.40
2018-09-30T01:08:07.560Z,8.40
2018-09-30T01:10:37.329Z,8.40
2018-09-30T01:13:07.146Z,8.40
2018-09-30T01:15:37.022Z,8.40
2018-09-30T01:18:06.825Z,8.40
2018-09-30T01:20:36.640Z,8.40
2018-09-30T01:23:06.770Z,8.40
2018-09-30T01:25:36.570Z,8.40
2018-09-30T01:28:06.594Z,8.40
2018-09-30T01:30:36.391Z,8.40
2018-09-30T01:33:06.194Z,8.40
2018-09-30T01:35:35.999Z,8.40
2018-09-30T01:38:07.174Z,8.30
2018-09-30T01:40:37.006Z,8.30
2018-09-30T01:43:06.783Z,8.30
2018-09-30T01:45:36.603Z,8.30
2018-09-30T01:48:06.954Z,8.30
2018-09-30T01:50:36.714Z,8.30
2018-09-30T01:53:06.474Z,8.30
2018-09-30T01:55:36.292Z,8.30
2018-09-30T01:58:06.394Z,8.30
2018-09-30T02:00:36.254Z,8.30
2018-09-30T02:03:06.079Z,8.20
2018-09-30T02:05:36.320Z,8.20
2018-09-30T02:08:06.170Z,8.20
2018-09-30T02:10:35.941Z,8.10
2018-09-30T02:13:05.699Z,8.10
2018-09-30T02:15:35.488Z,8.20
2018-09-30T02:18:05.311Z,8.20
2018-09-30T02:20:35.203Z,8.20
2018-09-30T02:23:06.386Z,8.10
2018-09-30T02:25:36.886Z,8.10
2018-09-30T02:28:06.661Z,8.10
2018-09-30T02:30:36.430Z,8.10
2018-09-30T02:33:06.202Z,8.00
2018-09-30T02:35:36.418Z,8.00
2018-09-30T02:38:06.235Z,8.00
2018-09-30T02:40:36.032Z,8.00
2018-09-30T02:43:05.818Z,8.00
2018-09-30T02:45:35.655Z,7.90
2018-09-30T02:48:05.467Z,7.90
2018-09-30T02:50:35.608Z,7.90
2018-09-30T02:53:08.107Z,7.90
2018-09-30T02:55:39.623Z,7.90
2018-09-30T02:58:09.674Z,7.90
2018-09-30T03:00:39.838Z,7.90
2018-09-30T03:03:09.578Z,7.90
2018-09-30T03:05:39.339Z,7.80
2018-09-30T03:08:14.349Z,7.80
2018-09-30T03:10:44.134Z,7.80
2018-09-30T03:13:13.911Z,7.70
2018-09-30T03:15:43.687Z,7.80
2018-09-30T03:18:13.526Z,7.70
2018-09-30T03:20:43.658Z,7.70
2018-09-30T03:23:13.710Z,7.70
2018-09-30T03:25:43.462Z,7.70
2018-09-30T03:28:13.247Z,7.60
2018-09-30T03:30:43.034Z,7.60
2018-09-30T03:33:13.235Z,7.60
2018-09-30T03:35:43.011Z,7.60
2018-09-30T03:38:12.803Z,7.60
2018-09-30T03:40:42.615Z,7.60
2018-09-30T03:43:12.379Z,7.50
2018-09-30T03:45:42.163Z,7.50
2018-09-30T03:48:12.334Z,7.50
2018-09-30T03:50:42.100Z,7.50
2018-09-30T03:53:11.866Z,7.50
2018-09-30T03:55:41.623Z,7.50
2018-09-30T03:58:11.738Z,7.50
2018-09-30T04:00:41.514Z,7.50
2018-09-30T04:03:11.291Z,7.50
2018-09-30T04:05:41.494Z,7.50
2018-09-30T04:08:11.303Z,7.50
2018-09-30T04:10:41.087Z,7.50
2018-09-30T04:13:10.854Z,7.50
2018-09-30T04:15:40.951Z,7.50
2018-09-30T04:18:10.728Z,7.50
2018-09-30T04:20:40.926Z,7.50
2018-09-30T04:23:10.687Z,7.60
2018-09-30T04:25:40.466Z,7.60
2018-09-30T04:28:10.262Z,7.60
2018-09-30T04:30:40.080Z,7.60
2018-09-30T04:33:10.294Z,7.60
2018-09-30T04:35:40.082Z,7.70
2018-09-30T04:38:09.831Z,7.70
2018-09-30T04:40:39.715Z,7.70
2018-09-30T04:43:09.537Z,7.70
2018-09-30T04:45:39.414Z,7.70
2018-09-30T04:48:09.610Z,7.70
2018-09-30T04:50:39.386Z,7.70
2018-09-30T04:53:09.211Z,7.70
2018-09-30T04:55:39.092Z,7.70
2018-09-30T04:58:09.003Z,7.70
2018-09-30T05:00:39.230Z,7.70
2018-09-30T05:03:09.071Z,7.70
2018-09-30T05:05:38.891Z,7.70
2018-09-30T05:08:08.753Z,7.70
2018-09-30T05:10:39.044Z,7.60
2018-09-30T05:13:08.864Z,7.60
2018-09-30T05:15:38.703Z,7.60
2018-09-30T05:18:08.630Z,7.60
2018-09-30T05:20:38.378Z,7.60
2018-09-30T05:23:08.211Z,7.60
2018-09-30T05:25:38.509Z,7.60
2018-09-30T05:28:08.279Z,7.60
2018-09-30T05:30:38.083Z,7.60
2018-09-30T05:33:08.191Z,7.70
2018-09-30T05:35:37.950Z,7.70
2018-09-30T05:38:07.813Z,7.70
2018-09-30T05:40:37.598Z,7.70
2018-09-30T05:43:07.870Z,7.70
2018-09-30T05:45:37.642Z,7.70
2018-09-30T05:48:07.370Z,7.70
2018-09-30T05:50:37.198Z,7.70
2018-09-30T05:53:07.106Z,7.70
2018-09-30T05:55:36.942Z,7.70
2018-09-30T05:58:07.265Z,7.70
2018-09-30T06:00:39.103Z,7.70
2018-09-30T06:03:10.031Z,7.80
2018-09-30T06:05:40.039Z,7.80
2018-09-30T06:08:10.418Z,7.80
2018-09-30T06:10:40.206Z,7.90
2018-09-30T06:13:10.507Z,7.90
2018-09-30T06:15:41.300Z,7.90
2018-09-30T06:18:11.683Z,7.90
2018-09-30T06:20:41.598Z,8.10
2018-09-30T06:23:11.614Z,7.90
2018-09-30T06:25:42.015Z,8.00
2018-09-30T06:28:12.466Z,8.00
2018-09-30T06:30:42.331Z,8.10
2018-09-30T06:33:12.318Z,8.20
2018-09-30T06:35:43.031Z,8.30
2018-09-30T06:38:12.830Z,8.30
2018-09-30T06:40:43.470Z,8.30
2018-09-30T06:43:13.482Z,8.30
2018-09-30T06:45:43.435Z,8.30
2018-09-30T06:48:13.518Z,8.30
2018-09-30T06:50:43.348Z,8.40
2018-09-30T06:53:13.119Z,8.40
2018-09-30T06:55:43.378Z,8.40
2018-09-30T06:58:13.209Z,8.40
2018-09-30T07:00:43.026Z,8.40
2018-09-30T07:03:12.795Z,8.40
2018-09-30T07:05:42.607Z,8.40
2018-09-30T07:08:12.399Z,8.40
2018-09-30T07:10:42.783Z,8.40
2018-09-30T07:13:12.564Z,8.40
2018-09-30T07:15:42.310Z,8.50
2018-09-30T07:18:12.090Z,8.60
2018-09-30T07:20:42.195Z,8.70
2018-09-30T07:23:11.998Z,8.80
2018-09-30T07:25:41.766Z,8.90
2018-09-30T07:28:11.827Z,9.00
2018-09-30T07:30:41.571Z,9.20
2018-09-30T07:33:11.415Z,9.40
2018-09-30T07:35:41.280Z,9.40
2018-09-30T07:38:12.174Z,9.50
2018-09-30T07:40:42.679Z,9.60
2018-09-30T07:43:12.538Z,9.70
2018-09-30T07:45:42.624Z,9.80
2018-09-30T07:48:13.038Z,10.00
2018-09-30T07:50:42.794Z,10.20
2018-09-30T07:53:12.687Z,10.30
2018-09-30T07:55:43.276Z,10.40
2018-09-30T07:58:13.166Z,10.50
2018-09-30T08:00:44.506Z,10.70
2018-09-30T08:03:14.562Z,10.70
2018-09-30T08:05:44.354Z,10.90
2018-09-30T08:08:14.262Z,11.10
2018-09-30T08:10:44.474Z,11.10
2018-09-30T08:13:14.398Z,11.10
2018-09-30T08:15:44.307Z,11.10
2018-09-30T08:18:14.451Z,11.20
2018-09-30T08:20:44.207Z,11.30
2018-09-30T08:23:14.042Z,11.30
2018-09-30T08:25:44.177Z,11.50
2018-09-30T08:28:13.984Z,11.60
2018-09-30T08:30:43.795Z,11.70
2018-09-30T08:33:13.733Z,11.70
2018-09-30T08:35:45.625Z,11.80
2018-09-30T08:38:20.588Z,11.60
2018-09-30T08:40:55.354Z,11.70
2018-09-30T08:43:26.663Z,11.90
2018-09-30T08:45:56.558Z,12.00
2018-09-30T08:48:26.466Z,12.20
2018-09-30T08:50:56.826Z,12.20
2018-09-30T08:53:27.092Z,12.30
2018-09-30T08:55:57.542Z,12.30
2018-09-30T08:58:28.232Z,12.50
2018-09-30T09:00:58.086Z,12.50
2018-09-30T09:03:28.298Z,12.50
2018-09-30T09:05:59.102Z,12.60
2018-09-30T09:08:29.018Z,12.80
2018-09-30T09:10:58.785Z,12.70
2018-09-30T09:13:28.594Z,12.70
2018-09-30T09:15:58.480Z,12.80
2018-09-30T09:18:28.339Z,12.70
2018-09-30T09:20:58.246Z,12.80
2018-09-30T09:23:28.298Z,12.90
2018-09-30T09:25:58.155Z,13.10
2018-09-30T09:28:28.259Z,13.30
2018-09-30T09:30:58.184Z,13.40
2018-09-30T09:33:28.376Z,13.40
2018-09-30T09:35:58.216Z,13.40
2018-09-30T09:38:28.095Z,13.50
2018-09-30T09:40:58.251Z,13.30
2018-09-30T09:43:28.191Z,13.60
2018-09-30T09:45:57.998Z,13.80
2018-09-30T09:48:28.207Z,13.90
2018-09-30T09:50:58.035Z,13.80
2018-09-30T09:53:27.945Z,13.70
2018-09-30T09:55:57.751Z,13.90
2018-09-30T09:58:27.551Z,13.90
2018-09-30T10:01:00.347Z,14.10
2018-09-30T10:03:30.155Z,14.40
2018-09-30T10:05:59.971Z,14.50
2018-09-30T10:08:30.214Z,14.60
2018-09-30T10:11:00.034Z,14.70
2018-09-30T10:13:29.895Z,14.30
2018-09-30T10:16:00.146Z,14.20
2018-09-30T10:18:30.012Z,14.30
2018-09-30T10:20:59.914Z,14.30
2018-09-30T10:23:30.007Z,14.50
2018-09-30T10:26:00.049Z,14.50
2018-09-30T10:28:29.906Z,14.20
2018-09-30T10:31:00.079Z,14.10
2018-09-30T10:33:29.963Z,14.20
2018-09-30T10:35:59.783Z,14.30
2018-09-30T10:38:30.146Z,14.20
2018-09-30T10:41:00.433Z,14.20
2018-09-30T10:43:30.295Z,14.30
2018-09-30T10:46:00.525Z,14.50
2018-09-30T10:48:30.793Z,14.60
2018-09-30T10:51:00.698Z,14.90
2018-09-30T10:53:30.506Z,15.00
2018-09-30T10:56:00.311Z,14.90
2018-09-30T10:58:30.214Z,14.70
2018-09-30T11:01:00.034Z,14.70
2018-09-30T11:03:30.026Z,14.70
2018-09-30T11:06:00.328Z,14.80
2018-09-30T11:08:30.355Z,15.10
2018-09-30T11:11:00.286Z,15.30
2018-09-30T11:13:30.183Z,15.30
2018-09-30T11:16:00.042Z,15.30
2018-09-30T11:18:30.131Z,15.40
2018-09-30T11:21:00.251Z,15.60
2018-09-30T11:23:30.011Z,15.70
2018-09-30T11:25:59.888Z,15.80
2018-09-30T11:28:29.969Z,16.00
2018-09-30T11:30:59.767Z,16.00
2018-09-30T11:33:29.551Z,16.00
2018-09-30T11:35:59.431Z,16.50
2018-09-30T11:38:29.219Z,16.90
2018-09-30T11:40:59.010Z,17.10
2018-09-30T11:43:28.844Z,17.20
2018-09-30T11:46:00.549Z,17.20
2018-09-30T11:48:30.848Z,17.70
2018-09-30T11:51:00.754Z,17.60
2018-09-30T11:53:30.668Z,17.20
2018-09-30T11:56:00.610Z,16.90
2018-09-30T11:58:30.707Z,16.80
2018-09-30T12:01:02.437Z,16.60
2018-09-30T12:03:32.589Z,16.50
2018-09-30T12:06:02.859Z,16.60
2018-09-30T12:08:33.411Z,16.90
2018-09-30T12:11:03.282Z,17.50
2018-09-30T12:13:33.447Z,17.90
2018-09-30T12:16:03.202Z,17.80
2018-09-30T12:18:33.860Z,17.70
2018-09-30T12:21:03.985Z,18.40
2018-09-30T12:23:34.112Z,18.30
2018-09-30T12:26:04.210Z,17.90
2018-09-30T12:28:34.383Z,18.00
2018-09-30T12:31:04.206Z,18.00
2018-09-30T12:33:33.990Z,18.00
2018-09-30T12:36:06.876Z,17.80
2018-09-30T12:38:36.695Z,17.40
2018-09-30T12:41:06.538Z,17.10
2018-09-30T12:43:36.631Z,17.20
2018-09-30T12:46:06.442Z,17.40
2018-09-30T12:48:36.469Z,18.10
2018-09-30T12:51:06.292Z,18.80
2018-09-30T12:53:36.265Z,19.30
2018-09-30T12:56:06.102Z,18.80
2018-09-30T12:58:35.905Z,18.90
2018-09-30T13:01:05.703Z,19.60
2018-09-30T13:03:35.855Z,19.60
2018-09-30T13:06:05.706Z,18.80
2018-09-30T13:08:35.483Z,18.80
2018-09-30T13:11:07.126Z,19.40
2018-09-30T13:13:36.988Z,19.30
2018-09-30T13:16:06.931Z,18.40
2018-09-30T13:18:37.178Z,18.10
2018-09-30T13:21:07.073Z,18.10
2018-09-30T13:23:36.944Z,18.20
2018-09-30T13:26:06.810Z,18.60
2018-09-30T13:28:36.618Z,18.40
2018-09-30T13:31:06.423Z,18.20
2018-09-30T13:33:36.553Z,18.10
2018-09-30T13:36:06.475Z,17.90
2018-09-30T13:38:36.382Z,17.60
2018-09-30T13:41:06.757Z,17.70
2018-09-30T13:43:36.455Z,17.50
2018-09-30T13:46:06.365Z,17.40
2018-09-30T13:48:36.475Z,17.10
2018-09-30T13:51:06.274Z,17.20
2018-09-30T13:53:36.077Z,17.30
2018-09-30T13:56:06.174Z,17.30
2018-09-30T13:58:36.122Z,17.30
2018-09-30T14:01:05.924Z,17.40
2018-09-30T14:03:36.124Z,17.40
2018-09-30T14:06:05.941Z,17.40
2018-09-30T14:08:35.755Z,17.40
2018-09-30T14:11:06.068Z,17.50
2018-09-30T14:13:35.892Z,17.70
2018-09-30T14:16:05.697Z,17.80
2018-09-30T14:18:35.819Z,17.60
2018-09-30T14:21:05.742Z,17.70
2018-09-30T14:23:35.591Z,17.70
2018-09-30T14:26:05.601Z,17.40
2018-09-30T14:28:35.703Z,17.30
2018-09-30T14:31:05.503Z,17.10
2018-09-30T14:33:35.319Z,17.00
2018-09-30T14:36:05.425Z,17.20
2018-09-30T14:38:35.186Z,17.30
2018-09-30T14:41:05.106Z,17.30
2018-09-30T14:43:35.182Z,17.50
2018-09-30T14:46:05.062Z,17.30
2018-09-30T14:48:34.968Z,17.20
2018-09-30T14:51:04.711Z,17.20
2018-09-30T14:53:34.485Z,17.20
2018-09-30T14:56:04.642Z,17.20
2018-09-30T14:58:34.458Z,17.10
2018-09-30T15:01:04.274Z,17.10
2018-09-30T15:03:34.090Z,17.20
2018-09-30T15:06:03.932Z,17.10
2018-09-30T15:08:33.847Z,17.00
2018-09-30T15:11:04.050Z,17.00
2018-09-30T15:13:33.847Z,16.90
2018-09-30T15:16:03.674Z,17.00
2018-09-30T15:18:33.526Z,16.90
2018-09-30T15:21:03.476Z,16.80
2018-09-30T15:23:33.727Z,16.70
2018-09-30T15:26:03.524Z,16.90
2018-09-30T15:28:33.446Z,16.70
2018-09-30T15:31:03.519Z,16.70
2018-09-30T15:33:33.399Z,16.70
2018-09-30T15:36:03.190Z,16.40
2018-09-30T15:38:33.246Z,16.40
2018-09-30T15:41:03.018Z,16.50
2018-09-30T15:43:32.882Z,16.50
2018-09-30T15:46:02.998Z,16.30
2018-09-30T15:48:32.847Z,16.10
2018-09-30T15:51:02.691Z,16.00
2018-09-30T15:53:33.074Z,16.00
2018-09-30T15:56:03.060Z,16.10
2018-09-30T15:58:32.869Z,16.10
2018-09-30T16:01:02.992Z,16.10
2018-09-30T16:03:32.808Z,16.00
2018-09-30T16:06:02.898Z,15.90
2018-09-30T16:08:33.193Z,15.80
2018-09-30T16:11:03.114Z,15.60
2018-09-30T16:13:32.894Z,15.60
2018-09-30T16:16:02.742Z,15.50
2018-09-30T16:18:32.610Z,15.50
2018-09-30T16:21:02.491Z,15.40
2018-09-30T16:23:32.307Z,15.40
2018-09-30T16:26:02.158Z,15.50
2018-09-30T16:28:32.287Z,15.40
2018-09-30T16:31:02.123Z,15.40
2018-09-30T16:33:31.923Z,15.40
2018-09-30T16:36:01.939Z,15.40
2018-09-30T16:38:31.837Z,15.40
2018-09-30T16:41:01.640Z,15.30
2018-09-30T16:43:31.742Z,15.20
2018-09-30T16:46:01.526Z,15.20
2018-09-30T16:48:31.326Z,15.10
2018-09-30T16:51:01.390Z,14.90
2018-09-30T16:53:31.320Z,14.90
2018-09-30T16:56:01.273Z,14.80
2018-09-30T16:58:31.387Z,14.70
2018-09-30T17:01:01.281Z,14.80
2018-09-30T17:03:31.114Z,14.60
2018-09-30T17:06:01.473Z,14.50
2018-09-30T17:08:31.348Z,14.40
2018-09-30T17:11:01.160Z,14.40
2018-09-30T17:13:31.335Z,14.20
2018-09-30T17:16:01.281Z,14.10
2018-09-30T17:18:31.076Z,14.00
2018-09-30T17:21:01.194Z,13.90
2018-09-30T17:23:31.252Z,13.90
2018-09-30T17:26:01.054Z,13.80
2018-09-30T17:28:31.361Z,13.70
2018-09-30T17:31:01.541Z,13.70
2018-09-30T17:33:31.884Z,13.70
2018-09-30T17:36:02.033Z,13.60
2018-09-30T17:38:31.894Z,13.60
2018-09-30T17:41:01.679Z,13.50
2018-09-30T17:43:31.924Z,13.50
2018-09-30T17:46:01.691Z,13.50
2018-09-30T17:48:31.524Z,13.50
2018-09-30T17:51:01.827Z,13.40
2018-09-30T17:53:31.622Z,13.40
2018-09-30T17:56:01.426Z,13.40
2018-09-30T17:58:31.798Z,13.30
2018-09-30T18:01:01.565Z,13.30
2018-09-30T18:03:31.346Z,13.10
2018-09-30T18:06:01.431Z,13.10
2018-09-30T18:08:31.234Z,13.00
2018-09-30T18:11:01.111Z,12.90
2018-09-30T18:13:31.214Z,12.80
2018-09-30T18:16:01.350Z,12.70
2018-09-30T18:18:31.186Z,12.60
2018-09-30T18:21:01.404Z,12.50
2018-09-30T18:23:31.199Z,12.50
2018-09-30T18:26:01.082Z,12.40
2018-09-30T18:28:30.930Z,12.30
2018-09-30T18:31:00.737Z,12.30
2018-09-30T18:33:30.786Z,12.20
2018-09-30T18:36:00.630Z,12.20
2018-09-30T18:38:30.478Z,12.20
2018-09-30T18:41:00.390Z,12.20
2018-09-30T18:43:30.777Z,12.20
2018-09-30T18:46:00.935Z,12.20
2018-09-30T18:48:30.749Z,12.20
2018-09-30T18:51:00.538Z,12.20
2018-09-30T18:53:30.670Z,12.20
2018-09-30T18:56:00.513Z,12.10
2018-09-30T18:58:30.381Z,12.10
2018-09-30T19:01:00.202Z,12.00
2018-09-30T19:03:30.014Z,12.00
2018-09-30T19:06:00.104Z,11.90
2018-09-30T19:08:29.903Z,11.90
2018-09-30T19:10:59.660Z,11.80
2018-09-30T19:13:29.618Z,11.80
2018-09-30T19:15:59.457Z,11.70
2018-09-30T19:18:29.972Z,11.70
2018-09-30T19:21:00.216Z,11.60
2018-09-30T19:23:30.045Z,11.60
2018-09-30T19:26:00.415Z,11.50
2018-09-30T19:28:30.527Z,11.50
2018-09-30T19:31:00.877Z,11.50
2018-09-30T19:33:32.863Z,11.50
2018-09-30T19:36:03.125Z,11.50
2018-09-30T19:38:33.234Z,11.50
2018-09-30T19:41:03.342Z,11.60
2018-09-30T19:43:33.154Z,11.60
2018-09-30T19:46:02.984Z,11.60
2018-09-30T19:48:33.086Z,11.60
2018-09-30T19:51:03.622Z,11.60
2018-09-30T19:53:34.074Z,11.60
2018-09-30T19:56:03.927Z,11.60
2018-09-30T19:58:33.870Z,11.60
2018-09-30T20:01:03.807Z,11.60
2018-09-30T20:03:33.646Z,11.60
2018-09-30T20:06:03.954Z,11.60
2018-09-30T20:08:34.754Z,11.60
2018-09-30T20:11:04.752Z,11.60
2018-09-30T20:13:34.534Z,11.60
2018-09-30T20:16:05.053Z,11.70
2018-09-30T20:18:35.154Z,11.60
2018-09-30T20:21:05.380Z,11.60
2018-09-30T20:23:35.410Z,11.60
2018-09-30T20:26:05.478Z,11.60
2018-09-30T20:28:36.194Z,11.60
2018-09-30T20:31:06.712Z,11.50
2018-09-30T20:33:36.941Z,11.40
2018-09-30T20:36:06.802Z,11.40
2018-09-30T20:38:36.867Z,11.40
2018-09-30T20:41:06.949Z,11.40
2018-09-30T20:43:36.750Z,11.40
2018-09-30T20:46:07.228Z,11.30
2018-09-30T20:48:38.004Z,11.30
2018-09-30T20:51:08.411Z,11.30
2018-09-30T20:53:38.605Z,11.20
2018-09-30T20:56:09.139Z,11.20
2018-09-30T21:05:55.296Z,11.10
2018-09-30T21:08:27.658Z,11.00
2018-09-30T21:10:59.737Z,11.00
2018-09-30T21:13:32.667Z,11.00
2018-09-30T21:16:03.059Z,11.00
2018-09-30T21:18:35.699Z,11.00
2018-09-30T21:21:05.678Z,11.00
2018-09-30T21:23:36.320Z,11.10
2018-09-30T21:26:06.296Z,11.10
2018-09-30T21:28:36.510Z,11.10
2018-09-30T21:31:08.670Z,11.10
2018-09-30T21:33:38.779Z,11.10
2018-09-30T21:36:08.703Z,11.10
2018-09-30T21:38:39.158Z,11.20
2018-09-30T21:41:09.455Z,11.20
2018-09-30T21:43:39.466Z,11.20
2018-09-30T21:46:09.338Z,11.30
2018-09-30T21:48:39.142Z,11.30
2018-09-30T21:51:09.446Z,11.30
2018-09-30T21:53:39.195Z,11.30
2018-09-30T21:56:09.547Z,11.30
2018-09-30T21:58:39.292Z,11.30
2018-09-30T22:01:10.157Z,11.30
2018-09-30T22:03:39.961Z,11.30
2018-09-30T22:06:10.326Z,11.30
2018-09-30T22:08:41.144Z,11.30
2018-09-30T22:11:11.096Z,11.30
2018-09-30T22:13:41.140Z,11.40
2018-09-30T22:16:11.233Z,11.40
2018-09-30T22:18:41.866Z,11.40
2018-09-30T22:21:13.354Z,11.40
2018-09-30T22:23:44.026Z,11.40
2018-09-30T22:26:14.438Z,11.40
2018-09-30T22:28:44.757Z,11.40
2018-09-30T22:31:15.191Z,11.50
2018-09-30T22:33:45.409Z,11.50
2018-09-30T22:36:15.793Z,11.50
2018-09-30T22:38:46.053Z,11.60
2018-09-30T22:41:16.217Z,11.50
2018-09-30T22:43:46.933Z,11.60
2018-09-30T22:46:17.061Z,11.60
2018-09-30T22:48:47.688Z,11.60
2018-09-30T22:51:18.295Z,11.60
2018-09-30T22:53:48.774Z,11.60
2018-09-30T22:56:19.081Z,11.60
2018-09-30T22:58:49.385Z,11.60
2018-09-30T23:01:19.314Z,11.50
2018-09-30T23:03:49.136Z,11.60
2018-09-30T23:06:19.648Z,11.50
2018-09-30T23:08:49.857Z,11.50
2018-09-30T23:11:19.803Z,11.50
2018-09-30T23:13:50.602Z,11.50
2018-09-30T23:16:21.316Z,11.60
2018-09-30T23:18:51.624Z,11.60
2018-09-30T23:21:22.574Z,11.60
2018-09-30T23:23:52.413Z,11.60
2018-09-30T23:26:22.672Z,11.60
2018-09-30T23:28:52.975Z,11.70
2018-09-30T23:31:23.501Z,11.70
2018-09-30T23:33:53.941Z,11.70
2018-09-30T23:36:24.437Z,11.80
2018-09-30T23:38:54.489Z,11.80
2018-09-30T23:41:24.831Z,11.80
2018-09-30T23:43:55.199Z,11.80
2018-09-30T23:46:25.383Z,11.80
2018-09-30T23:48:55.758Z,11.80
2018-09-30T23:51:26.425Z,11.80
2018-09-30T23:53:56.437Z,11.80
2018-09-30T23:56:26.491Z,11.80
2018-09-30T23:58:56.862Z,11.80
